Time;durP1;ratioP1;P1;durP2;ratioP2;P2;SDS_P1;SDS_P2;PMS_P1;PMS_P2;Temp;Humidity;BMP_temperature;BMP_pressure;BME280_temperature;BME280_humidity;BME280_pressure;Samples;Min_cycle;Max_cycle;Signal;HPM_P1;HPM_P2
2022/04/05 00:01:12;;;;;;;13.33;10.40;;;4.00;99.90;;;;;;5034004;28;20217;-76
2022/04/05 00:03:38;;;;;;;15.27;11.10;;;4.00;99.90;;;;;;5033449;28;20281;-76
2022/04/05 00:06:03;;;;;;;14.60;11.03;;;4.00;99.90;;;;;;5037026;28;20184;-76
2022/04/05 00:08:29;;;;;;;14.93;11.83;;;4.00;99.90;;;;;;5054377;28;20215;-76
2022/04/05 00:10:55;;;;;;;15.87;12.03;;;4.00;99.90;;;;;;5037392;28;20177;-76
2022/04/05 00:13:20;;;;;;;15.50;11.33;;;4.00;99.90;;;;;;5054051;28;20647;-76
2022/04/05 00:15:46;;;;;;;14.60;11.13;;;4.00;99.90;;;;;;5037630;28;20666;-76
2022/04/05 00:18:12;;;;;;;15.87;11.20;;;4.00;99.90;;;;;;5053695;28;20591;-76
2022/04/05 00:20:38;;;;;;;12.33;9.40;;;4.10;99.90;;;;;;5053944;28;20185;-76
2022/04/05 00:23:04;;;;;;;13.70;10.40;;;4.10;99.90;;;;;;5036797;28;20190;-76
2022/04/05 00:25:29;;;;;;;11.13;8.70;;;4.10;99.90;;;;;;5053955;28;20181;-76
2022/04/05 00:27:55;;;;;;;13.50;10.67;;;4.10;99.90;;;;;;5036936;28;20611;-76
2022/04/05 00:30:21;;;;;;;13.60;10.73;;;4.10;99.90;;;;;;5020753;28;20670;-76
2022/04/05 00:32:47;;;;;;;12.53;9.50;;;4.00;99.90;;;;;;5065515;23;20771;-75
2022/04/05 00:35:13;;;;;;;12.17;10.17;;;4.00;99.90;;;;;;5020280;28;20652;-75
2022/04/05 00:37:39;;;;;;;12.87;10.07;;;4.00;99.90;;;;;;5020221;28;20235;-75
2022/04/05 00:40:06;;;;;;;14.03;10.60;;;4.00;99.90;;;;;;5036750;28;20214;-75
2022/04/05 00:42:33;;;;;;;15.00;10.80;;;4.00;99.90;;;;;;5036553;28;20261;-76
2022/04/05 00:44:59;;;;;;;13.40;10.10;;;4.00;99.90;;;;;;5036450;28;20186;-76
2022/04/05 00:47:24;;;;;;;14.00;9.47;;;4.00;99.90;;;;;;5036311;28;20211;-75
2022/04/05 00:49:52;;;;;;;13.03;9.87;;;4.00;99.90;;;;;;5019863;28;20176;-75
2022/04/05 00:52:20;;;;;;;14.10;9.80;;;4.00;99.90;;;;;;5036489;28;20193;-75
2022/04/05 00:54:48;;;;;;;10.73;8.50;;;4.00;99.90;;;;;;5036548;28;20222;-75
2022/04/05 00:57:20;;;;;;;15.93;10.43;;;4.00;99.90;;;;;;5036232;28;20184;-75
2022/04/05 00:59:48;;;;;;;13.10;9.93;;;4.00;99.90;;;;;;5036217;28;20187;-76
2022/04/05 01:02:16;;;;;;;12.63;10.07;;;4.00;99.90;;;;;;5019425;28;20202;-75
2022/04/05 01:04:43;;;;;;;12.33;9.83;;;4.00;99.90;;;;;;5035891;28;20223;-75
2022/04/05 01:07:12;;;;;;;13.20;9.87;;;4.00;99.90;;;;;;5036051;28;20263;-75
2022/04/05 01:09:38;;;;;;;14.50;9.83;;;4.10;99.90;;;;;;5035920;28;20175;-75
2022/04/05 01:12:08;;;;;;;9.73;7.93;;;4.00;99.90;;;;;;5035885;28;20241;-75
2022/04/05 01:14:35;;;;;;;11.90;8.60;;;4.10;99.90;;;;;;5020145;28;20222;-75
2022/04/05 01:17:03;;;;;;;11.27;9.00;;;4.10;99.90;;;;;;5002058;28;20176;-75
2022/04/05 01:19:30;;;;;;;11.60;9.27;;;4.10;99.90;;;;;;5053715;28;20222;-75
2022/04/05 01:21:55;;;;;;;10.33;8.50;;;4.10;99.90;;;;;;5035772;28;20186;-75
2022/04/05 01:24:21;;;;;;;10.70;9.10;;;4.10;99.90;;;;;;5003224;28;20189;-75
2022/04/05 01:26:55;;;;;;;10.93;8.07;;;4.10;99.90;;;;;;5019435;28;20172;-75
2022/04/05 01:29:22;;;;;;;10.90;8.73;;;4.20;99.90;;;;;;5019208;28;20707;-75
2022/04/05 01:31:51;;;;;;;10.63;8.77;;;4.20;99.90;;;;;;5018995;28;20216;-75
2022/04/05 01:34:20;;;;;;;10.33;8.77;;;4.20;99.90;;;;;;5035581;28;20551;-76
2022/04/05 01:36:50;;;;;;;10.17;8.53;;;4.10;99.90;;;;;;5018855;28;20203;-76
2022/04/05 01:39:17;;;;;;;11.43;8.67;;;4.20;99.90;;;;;;5035829;28;20175;-75
2022/04/05 01:41:43;;;;;;;10.27;8.20;;;4.20;99.90;;;;;;5002508;28;20223;-75
2022/04/05 01:44:11;;;;;;;9.40;7.70;;;4.20;99.90;;;;;;5053177;28;20268;-75
2022/04/05 01:46:36;;;;;;;8.73;7.63;;;4.20;99.90;;;;;;5035444;28;20196;-75
2022/04/05 01:49:06;;;;;;;8.37;7.10;;;4.30;99.90;;;;;;5019043;28;20574;-76
2022/04/05 01:51:35;;;;;;;8.63;7.10;;;4.30;99.90;;;;;;5035389;28;20566;-76
2022/04/05 01:54:05;;;;;;;11.20;8.93;;;4.30;99.90;;;;;;5035106;28;20180;-76
2022/04/05 01:56:51;;;;;;;9.80;8.13;;;4.30;99.90;;;;;;5003260;28;20188;-76
2022/04/05 01:59:19;;;;;;;9.37;7.47;;;4.30;99.90;;;;;;5053074;28;20201;-76
2022/04/05 02:01:45;;;;;;;10.10;8.37;;;4.30;99.90;;;;;;5002440;28;20242;-76
2022/04/05 02:04:11;;;;;;;8.23;7.07;;;4.30;99.90;;;;;;5018383;28;20205;-76
2022/04/05 02:06:39;;;;;;;9.03;7.43;;;4.30;99.90;;;;;;5018507;28;20625;-76
2022/04/05 02:09:05;;;;;;;8.50;7.17;;;4.30;99.90;;;;;;5018243;28;20219;-76
2022/04/05 02:11:32;;;;;;;8.53;7.50;;;4.30;99.90;;;;;;5034938;28;20223;-76
2022/04/05 02:13:58;;;;;;;8.73;7.40;;;4.30;99.90;;;;;;5018337;28;20658;-76
2022/04/05 02:16:25;;;;;;;9.17;7.43;;;4.30;99.90;;;;;;5018625;28;20176;-76
2022/04/05 02:18:50;;;;;;;10.03;7.80;;;4.30;99.90;;;;;;5018395;28;20231;-76
2022/04/05 02:21:16;;;;;;;10.33;7.27;;;4.30;99.90;;;;;;5018187;28;20649;-76
2022/04/05 02:23:42;;;;;;;8.50;7.17;;;4.30;99.90;;;;;;5018046;28;20237;-76
2022/04/05 02:26:08;;;;;;;8.73;7.00;;;4.30;99.90;;;;;;5034814;28;20181;-76
2022/04/05 02:28:34;;;;;;;8.53;7.33;;;4.40;99.90;;;;;;5034384;28;20203;-76
2022/04/05 02:31:00;;;;;;;9.43;7.00;;;4.40;99.90;;;;;;5001855;28;20184;-76
2022/04/05 02:33:25;;;;;;;8.27;6.90;;;4.40;99.90;;;;;;5001695;28;20278;-76
2022/04/05 02:35:52;;;;;;;8.70;7.20;;;4.40;99.90;;;;;;5034496;28;20265;-76
2022/04/05 02:38:18;;;;;;;7.23;6.53;;;4.40;99.90;;;;;;5034410;28;20241;-76
2022/04/05 02:40:45;;;;;;;7.53;6.23;;;4.40;99.90;;;;;;5018057;28;20188;-76
2022/04/05 02:43:10;;;;;;;6.80;6.10;;;4.40;99.90;;;;;;5017934;28;20211;-76
2022/04/05 02:45:36;;;;;;;8.07;6.80;;;4.50;99.90;;;;;;5052228;28;20177;-76
2022/04/05 02:48:03;;;;;;;7.30;6.37;;;4.40;99.90;;;;;;5001589;28;20218;-76
2022/04/05 02:50:29;;;;;;;8.90;6.87;;;4.40;99.90;;;;;;5017963;28;20177;-75
2022/04/05 02:52:54;;;;;;;7.40;6.60;;;4.40;99.90;;;;;;5034108;28;20197;-75
2022/04/05 02:55:21;;;;;;;8.27;7.20;;;4.40;99.90;;;;;;5017894;28;20219;-76
2022/04/05 02:57:47;;;;;;;7.70;5.70;;;4.50;99.90;;;;;;5034395;28;20182;-76
2022/04/05 03:00:17;;;;;;;7.20;6.43;;;4.50;99.90;;;;;;5034219;28;20185;-76
2022/04/05 03:02:43;;;;;;;7.07;6.37;;;4.40;99.90;;;;;;5017902;28;20201;-76
2022/04/05 03:05:10;;;;;;;7.80;6.43;;;4.50;99.90;;;;;;5017644;28;20266;-76
2022/04/05 03:07:40;;;;;;;7.60;6.40;;;4.50;99.90;;;;;;5033848;28;20250;-76
2022/04/05 03:10:11;;;;;;;7.20;6.50;;;4.50;99.90;;;;;;5034720;28;20179;-76
2022/04/05 03:12:37;;;;;;;8.03;7.23;;;4.50;99.90;;;;;;5051702;28;20191;-76
2022/04/05 03:15:08;;;;;;;7.40;6.60;;;4.50;99.90;;;;;;5017648;28;20177;-76
2022/04/05 03:17:35;;;;;;;9.37;7.10;;;4.50;99.90;;;;;;5017639;28;20188;-76
2022/04/05 03:20:02;;;;;;;7.57;6.53;;;4.60;99.90;;;;;;5034101;28;20173;-76
2022/04/05 03:22:27;;;;;;;8.00;6.93;;;4.50;99.90;;;;;;5034078;28;20201;-76
2022/04/05 03:24:53;;;;;;;8.03;7.23;;;4.60;99.90;;;;;;5034024;28;20256;-76
2022/04/05 03:27:18;;;;;;;7.90;7.10;;;4.60;99.90;;;;;;5001375;28;20577;-76
2022/04/05 03:29:44;;;;;;;8.03;6.63;;;4.60;99.90;;;;;;5001195;28;20181;-76
2022/04/05 03:32:11;;;;;;;7.23;6.53;;;4.60;99.90;;;;;;5017279;28;20633;-76
2022/04/05 03:34:38;;;;;;;7.87;6.83;;;4.60;99.90;;;;;;5017579;28;20644;-76
2022/04/05 03:37:04;;;;;;;9.13;6.73;;;4.70;99.90;;;;;;5017484;28;20208;-76
2022/04/05 03:39:29;;;;;;;7.87;6.90;;;4.70;99.90;;;;;;5002083;28;20185;-76
2022/04/05 03:41:56;;;;;;;9.37;7.20;;;4.60;99.90;;;;;;5021053;28;20261;-76
2022/04/05 03:44:22;;;;;;;7.53;6.60;;;4.60;99.90;;;;;;5055492;28;20176;-76
2022/04/05 03:46:48;;;;;;;7.80;6.73;;;4.60;99.90;;;;;;5004786;28;20185;-76
2022/04/05 03:49:13;;;;;;;7.40;6.47;;;4.60;99.90;;;;;;5004690;28;20184;-76
2022/04/05 03:51:39;;;;;;;8.10;7.13;;;4.60;99.90;;;;;;5020848;28;20200;-76
2022/04/05 03:54:04;;;;;;;7.83;6.80;;;4.60;99.90;;;;;;5021324;28;20176;-76
2022/04/05 03:56:30;;;;;;;7.53;6.00;;;4.60;99.90;;;;;;5020886;28;20178;-76
2022/04/05 03:58:56;;;;;;;7.97;6.83;;;4.60;99.90;;;;;;5020784;28;20188;-76
2022/04/05 04:01:22;;;;;;;7.73;6.57;;;4.60;99.90;;;;;;5020718;28;20189;-76
2022/04/05 04:03:47;;;;;;;7.83;6.40;;;4.60;99.90;;;;;;5020619;28;20547;-76
2022/04/05 04:06:13;;;;;;;7.93;6.60;;;4.60;99.90;;;;;;5004398;28;20181;-75
2022/04/05 04:08:38;;;;;;;7.63;6.83;;;4.70;99.90;;;;;;5004514;28;20211;-76
2022/04/05 04:11:04;;;;;;;6.60;5.37;;;4.70;99.90;;;;;;5020847;28;20245;-76
2022/04/05 04:13:30;;;;;;;7.13;6.37;;;4.70;99.90;;;;;;5020668;28;20201;-75
2022/04/05 04:15:56;;;;;;;8.13;7.03;;;4.70;99.90;;;;;;5020750;28;20177;-76
2022/04/05 04:18:22;;;;;;;8.23;6.73;;;4.70;99.90;;;;;;5036960;28;20613;-76
2022/04/05 04:20:48;;;;;;;7.63;6.73;;;4.70;99.90;;;;;;5020704;28;20263;-76
2022/04/05 04:23:15;;;;;;;7.47;6.53;;;4.80;99.90;;;;;;5036886;28;20193;-75
2022/04/05 04:25:41;;;;;;;8.23;7.07;;;4.80;99.90;;;;;;5020619;28;20185;-75
2022/04/05 04:28:08;;;;;;;8.70;7.20;;;4.70;99.90;;;;;;5020190;28;20674;-75
2022/04/05 04:30:36;;;;;;;8.80;7.00;;;4.70;99.90;;;;;;5004077;28;20181;-76
2022/04/05 04:33:03;;;;;;;8.27;5.50;;;4.70;99.90;;;;;;5020268;28;20250;-76
2022/04/05 04:35:30;;;;;;;10.20;7.57;;;4.80;99.90;;;;;;5054604;28;20174;-76
2022/04/05 04:37:55;;;;;;;7.77;6.17;;;4.80;99.90;;;;;;5020115;28;20230;-76
2022/04/05 04:40:21;;;;;;;9.97;7.30;;;4.90;99.90;;;;;;5036715;28;20185;-76
2022/04/05 04:42:47;;;;;;;8.17;6.63;;;4.80;99.90;;;;;;5019927;28;20201;-76
2022/04/05 04:45:13;;;;;;;9.77;7.23;;;4.90;99.90;;;;;;5036501;28;20185;-76
2022/04/05 04:47:40;;;;;;;9.73;7.70;;;4.80;99.90;;;;;;5019904;28;20267;-76
2022/04/05 04:50:07;;;;;;;8.27;7.47;;;4.80;99.90;;;;;;5036477;28;20173;-76
2022/04/05 04:52:33;;;;;;;8.57;7.67;;;4.80;99.90;;;;;;5019856;28;20194;-76
2022/04/05 04:54:58;;;;;;;8.37;7.47;;;4.80;99.90;;;;;;5003880;28;20188;-76
2022/04/05 04:57:25;;;;;;;10.63;7.90;;;4.80;99.90;;;;;;5036170;28;20177;-76
2022/04/05 04:59:52;;;;;;;8.50;7.37;;;4.80;99.90;;;;;;5020232;28;20177;-76
2022/04/05 05:02:18;;;;;;;9.70;7.80;;;4.70;99.90;;;;;;5019715;28;20211;-76
2022/04/05 05:04:44;;;;;;;9.37;7.77;;;4.80;99.90;;;;;;5035909;28;20184;-76
2022/04/05 05:07:09;;;;;;;8.00;7.07;;;4.80;99.90;;;;;;5036048;28;20319;-77
2022/04/05 05:09:35;;;;;;;8.97;7.40;;;4.70;99.90;;;;;;5036207;28;20315;-77
2022/04/05 05:12:01;;;;;;;8.40;6.50;;;4.70;99.90;;;;;;5003035;28;20287;-76
2022/04/05 05:14:27;;;;;;;8.63;6.83;;;4.80;99.90;;;;;;5035948;28;20169;-76
2022/04/05 05:16:56;;;;;;;7.30;6.57;;;4.70;99.90;;;;;;5019476;28;20178;-77
2022/04/05 05:19:22;;;;;;;8.20;7.30;;;4.80;99.90;;;;;;5019299;28;20213;-77
2022/04/05 05:21:48;;;;;;;6.80;6.10;;;4.80;99.90;;;;;;5035781;28;20298;-77
2022/04/05 05:24:13;;;;;;;7.80;6.90;;;4.80;99.90;;;;;;5019648;28;20564;-77
2022/04/05 05:26:39;;;;;;;7.73;6.93;;;4.80;99.90;;;;;;5019145;28;20591;-77
2022/04/05 05:29:05;;;;;;;7.03;6.33;;;4.80;99.90;;;;;;5019328;28;20233;-76
2022/04/05 05:31:31;;;;;;;7.23;6.30;;;4.80;99.90;;;;;;5002598;28;20266;-76
2022/04/05 05:33:57;;;;;;;7.13;6.43;;;4.80;99.90;;;;;;5019131;28;20256;-76
2022/04/05 05:36:22;;;;;;;7.20;6.37;;;4.80;99.90;;;;;;5002706;28;20189;-76
2022/04/05 05:38:48;;;;;;;7.83;6.47;;;4.90;99.90;;;;;;5019309;28;20235;-77
2022/04/05 05:41:14;;;;;;;6.73;6.03;;;4.90;99.90;;;;;;5018825;28;20170;-77
2022/04/05 05:43:41;;;;;;;7.50;6.47;;;4.90;99.90;;;;;;5018764;28;20531;-76
2022/04/05 05:46:06;;;;;;;7.73;6.73;;;4.90;99.90;;;;;;5019308;28;20173;-76
2022/04/05 05:48:33;;;;;;;7.10;6.40;;;4.90;99.90;;;;;;5035651;28;20259;-77
2022/04/05 05:50:59;;;;;;;8.00;6.40;;;4.90;99.90;;;;;;5018970;28;20182;-77
2022/04/05 05:53:25;;;;;;;26.53;17.70;;;5.00;99.90;;;;;;5034787;28;20200;-76
2022/04/05 05:55:51;;;;;;;5.20;4.70;;;5.00;99.90;;;;;;5035161;28;20265;-77
2022/04/05 05:58:17;;;;;;;5.73;5.13;;;5.10;99.90;;;;;;5002431;28;20264;-77
2022/04/05 06:00:42;;;;;;;5.90;5.30;;;5.10;99.90;;;;;;5035415;28;20212;-76
2022/04/05 06:03:10;;;;;;;5.70;5.10;;;5.10;99.90;;;;;;5001255;28;20193;-77
2022/04/05 06:05:36;;;;;;;4.90;4.40;;;5.10;99.90;;;;;;5018679;28;20182;-78
2022/04/05 06:08:02;;;;;;;6.63;4.93;;;5.20;99.90;;;;;;5018443;28;20198;-77
2022/04/05 06:10:28;;;;;;;6.33;5.00;;;5.20;99.90;;;;;;5018532;28;20170;-76
2022/04/05 06:12:57;;;;;;;6.80;5.27;;;5.20;99.90;;;;;;5001927;28;20332;-76
2022/04/05 06:15:25;;;;;;;5.90;4.63;;;5.20;99.90;;;;;;5034698;28;20184;-77
2022/04/05 06:17:51;;;;;;;5.53;4.70;;;5.30;99.90;;;;;;5018645;28;20184;-78
2022/04/05 06:20:19;;;;;;;5.03;4.53;;;5.30;99.90;;;;;;5018449;28;20178;-77
2022/04/05 06:22:48;;;;;;;4.90;4.40;;;5.30;99.90;;;;;;5034661;28;20220;-76
2022/04/05 06:25:19;;;;;;;6.57;5.33;;;5.30;99.90;;;;;;5034714;28;20231;-78
2022/04/05 06:27:45;;;;;;;4.53;4.07;;;5.30;99.90;;;;;;5034703;28;20186;-78
2022/04/05 06:30:13;;;;;;;5.40;4.70;;;5.30;99.90;;;;;;5018293;28;20636;-78
2022/04/05 06:32:39;;;;;;;5.13;4.63;;;5.30;99.90;;;;;;5042572;22;20221;-78
2022/04/05 06:35:07;;;;;;;5.87;5.13;;;5.30;99.90;;;;;;5018532;28;20273;-76
2022/04/05 06:37:35;;;;;;;5.10;4.60;;;5.30;99.90;;;;;;5018679;28;20551;-77
2022/04/05 06:40:01;;;;;;;5.70;5.20;;;5.30;99.90;;;;;;5018498;28;20188;-76
2022/04/05 06:42:29;;;;;;;5.07;4.57;;;5.30;99.90;;;;;;5034485;28;20197;-76
2022/04/05 06:44:55;;;;;;;4.97;4.50;;;5.30;99.90;;;;;;5018533;28;20174;-76
2022/04/05 06:47:20;;;;;;;5.30;4.80;;;5.30;99.90;;;;;;5034436;28;20248;-76
2022/04/05 06:49:46;;;;;;;5.63;5.00;;;5.40;99.90;;;;;;5034507;28;20201;-76
2022/04/05 06:52:12;;;;;;;5.60;5.00;;;5.40;99.90;;;;;;5017760;28;20221;-76
2022/04/05 06:54:38;;;;;;;5.50;5.00;;;5.40;99.90;;;;;;5018083;28;20259;-76
2022/04/05 06:57:04;;;;;;;5.67;5.17;;;5.50;99.90;;;;;;5018078;28;20224;-76
2022/04/05 06:59:29;;;;;;;5.43;4.93;;;5.50;99.90;;;;;;5001693;28;20181;-76
2022/04/05 07:01:55;;;;;;;6.00;5.40;;;5.50;99.90;;;;;;5001491;28;20217;-76
2022/04/05 07:04:21;;;;;;;5.97;5.37;;;5.50;99.90;;;;;;5017567;28;20185;-76
2022/04/05 07:06:46;;;;;;;5.67;4.90;;;5.50;99.90;;;;;;5018000;28;20181;-76
2022/04/05 07:09:12;;;;;;;5.50;5.00;;;5.50;99.90;;;;;;5017651;28;20230;-76
2022/04/05 07:11:37;;;;;;;6.20;5.60;;;5.50;99.90;;;;;;5017816;28;20261;-76
2022/04/05 07:14:03;;;;;;;6.60;5.67;;;5.50;99.90;;;;;;5001568;28;20187;-77
2022/04/05 07:16:29;;;;;;;6.70;6.00;;;5.50;99.90;;;;;;5038098;28;20174;-77
2022/04/05 07:18:55;;;;;;;7.63;6.03;;;5.50;99.90;;;;;;5005575;28;20277;-75
2022/04/05 07:21:20;;;;;;;6.53;5.87;;;5.50;99.90;;;;;;5021940;28;20235;-76
2022/04/05 07:23:49;;;;;;;7.07;5.97;;;5.50;99.90;;;;;;5038131;28;20232;-76
2022/04/05 07:26:15;;;;;;;5.70;5.10;;;5.60;99.90;;;;;;5021634;28;20190;-77
2022/04/05 07:28:41;;;;;;;5.90;5.30;;;5.60;99.90;;;;;;5038198;28;20255;-76
2022/04/05 07:31:07;;;;;;;5.73;5.23;;;5.60;99.90;;;;;;5021692;28;20181;-75
2022/04/05 07:33:32;;;;;;;4.60;4.20;;;5.70;99.90;;;;;;5005122;28;20300;-77
2022/04/05 07:35:58;;;;;;;4.87;4.47;;;5.70;99.90;;;;;;5021612;28;20553;-76
2022/04/05 07:38:24;;;;;;;5.30;4.80;;;5.70;99.90;;;;;;5021344;28;20209;-76
2022/04/05 07:40:52;;;;;;;5.50;5.00;;;5.80;99.90;;;;;;5037978;28;20183;-76
2022/04/05 07:43:28;;;;;;;4.77;4.33;;;5.80;99.90;;;;;;5037649;28;20226;-75
2022/04/05 07:45:54;;;;;;;5.43;4.87;;;5.80;99.90;;;;;;5021425;28;20644;-75
2022/04/05 07:48:29;;;;;;;6.40;5.13;;;5.80;99.90;;;;;;5021259;28;20225;-76
2022/04/05 07:50:55;;;;;;;5.27;4.77;;;5.90;99.90;;;;;;5037532;28;20542;-76
2022/04/05 07:53:21;;;;;;;5.23;4.73;;;5.90;99.90;;;;;;5021271;28;20198;-76
2022/04/05 07:55:47;;;;;;;5.37;4.87;;;5.90;99.90;;;;;;5021008;28;20215;-77
2022/04/05 07:58:13;;;;;;;6.43;5.70;;;5.90;99.90;;;;;;5004666;28;20727;-78
2022/04/05 08:00:38;;;;;;;6.00;5.40;;;5.90;99.90;;;;;;5020758;28;20187;-77
2022/04/05 08:03:05;;;;;;;6.03;5.27;;;6.00;99.90;;;;;;5020205;28;20220;-78
2022/04/05 08:05:31;;;;;;;6.30;5.63;;;6.00;99.90;;;;;;5004765;28;20185;-77
2022/04/05 08:07:56;;;;;;;5.90;5.30;;;6.00;99.90;;;;;;5021180;28;20217;-77
2022/04/05 08:10:22;;;;;;;6.60;5.97;;;6.00;99.90;;;;;;5004531;28;20544;-77
2022/04/05 08:12:49;;;;;;;6.47;5.87;;;5.90;99.90;;;;;;5004133;28;20203;-77
2022/04/05 08:15:21;;;;;;;6.90;6.07;;;5.90;99.90;;;;;;5020690;28;20178;-78
2022/04/05 08:17:47;;;;;;;6.90;6.23;;;6.00;99.90;;;;;;5004500;28;20187;-77
2022/04/05 08:20:14;;;;;;;8.03;6.50;;;6.00;99.90;;;;;;5020616;28;20192;-77
2022/04/05 08:22:41;;;;;;;6.57;5.73;;;6.00;99.90;;;;;;5036932;28;20205;-76
2022/04/05 08:25:07;;;;;;;7.17;6.47;;;6.00;99.90;;;;;;5036515;28;20182;-76
2022/04/05 08:27:34;;;;;;;7.13;6.43;;;6.10;99.90;;;;;;5036840;28;20294;-77
2022/04/05 08:30:00;;;;;;;24.57;8.53;;;6.00;99.90;;;;;;5036961;28;20658;-76
2022/04/05 08:32:27;;;;;;;7.73;6.87;;;6.00;99.90;;;;;;5020151;28;20209;-76
2022/04/05 08:34:53;;;;;;;8.47;7.60;;;6.00;99.90;;;;;;5036659;28;20258;-77
2022/04/05 08:37:18;;;;;;;8.40;6.90;;;6.00;99.90;;;;;;5020593;28;20260;-76
2022/04/05 08:39:44;;;;;;;8.33;7.23;;;6.10;99.90;;;;;;5036626;28;20177;-76
2022/04/05 08:42:10;;;;;;;7.77;7.00;;;6.10;99.90;;;;;;5020037;28;20201;-76
2022/04/05 08:44:36;;;;;;;8.13;7.33;;;6.20;99.90;;;;;;5036689;28;20224;-76
2022/04/05 08:47:03;;;;;;;8.97;8.07;;;6.20;99.90;;;;;;5020004;28;20174;-76
2022/04/05 08:49:30;;;;;;;8.37;7.50;;;6.20;99.90;;;;;;5020040;28;20178;-76
2022/04/05 08:51:56;;;;;;;8.10;7.30;;;6.30;99.90;;;;;;5019832;28;20197;-76
2022/04/05 08:54:22;;;;;;;8.60;7.70;;;6.30;99.90;;;;;;5033836;28;20182;-76
2022/04/05 08:56:50;;;;;;;8.00;7.20;;;6.30;99.90;;;;;;5019537;28;20220;-77
2022/04/05 08:59:15;;;;;;;8.77;7.30;;;6.30;99.90;;;;;;5000324;28;20707;-78
2022/04/05 09:01:41;;;;;;;9.10;7.53;;;6.30;99.90;;;;;;5016628;28;20247;-76
2022/04/05 09:04:10;;;;;;;8.43;6.83;;;6.30;99.90;;;;;;5016071;28;20258;-76
2022/04/05 09:06:36;;;;;;;8.23;7.07;;;6.30;99.90;;;;;;4984394;28;20187;-76
2022/04/05 09:09:13;;;;;;;7.10;6.40;;;6.30;99.90;;;;;;5016568;28;20206;-76
2022/04/05 09:11:50;;;;;;;7.47;6.77;;;6.40;99.90;;;;;;5005188;28;20272;-76
2022/04/05 09:14:41;;;;;;;7.30;6.53;;;6.40;99.90;;;;;;5036088;28;20169;-76
2022/04/05 09:17:09;;;;;;;7.57;6.73;;;6.40;99.90;;;;;;5036403;28;20316;-76
2022/04/05 09:19:49;;;;;;;7.17;6.47;;;6.40;99.90;;;;;;5036014;28;20171;-76
2022/04/05 09:22:30;;;;;;;6.63;6.00;;;6.40;99.90;;;;;;5003703;28;20245;-77
2022/04/05 09:25:03;;;;;;;6.93;5.93;;;6.40;99.90;;;;;;5036076;28;20163;-77
2022/04/05 09:27:42;;;;;;;7.00;6.30;;;6.30;99.90;;;;;;5019550;28;20203;-77
2022/04/05 09:30:51;;;;;;;7.40;6.70;;;6.30;99.90;;;;;;5036089;28;20209;-77
2022/04/05 09:33:17;;;;;;;7.50;6.70;;;6.30;99.90;;;;;;5053688;28;20195;-77
2022/04/05 09:35:44;;;;;;;6.77;5.80;;;6.30;99.90;;;;;;5003293;28;20176;-77
2022/04/05 09:38:15;;;;;;;6.90;6.20;;;6.30;99.90;;;;;;5018796;28;20232;-77
2022/04/05 09:40:41;;;;;;;7.40;6.67;;;6.30;99.90;;;;;;5019964;28;20182;-77
2022/04/05 09:43:14;;;;;;;8.40;6.93;;;6.30;99.90;;;;;;5035684;28;20201;-76
2022/04/05 09:45:53;;;;;;;7.90;7.10;;;6.40;99.90;;;;;;5053577;28;20192;-76
2022/04/05 09:48:24;;;;;;;7.37;6.67;;;6.40;99.90;;;;;;5035928;28;20660;-76
2022/04/05 09:51:31;;;;;;;6.77;6.07;;;6.40;99.90;;;;;;5019036;28;20202;-76
2022/04/05 09:53:57;;;;;;;7.90;7.10;;;6.40;99.90;;;;;;5035790;28;20173;-76
2022/04/05 09:56:26;;;;;;;8.33;7.47;;;6.40;99.90;;;;;;5003182;28;20241;-76
2022/04/05 09:59:04;;;;;;;11.77;9.03;;;6.40;99.90;;;;;;5035715;28;20265;-76
2022/04/05 10:01:32;;;;;;;11.17;10.07;;;6.40;99.90;;;;;;5036446;28;20161;-77
2022/04/05 10:04:17;;;;;;;9.57;8.57;;;6.50;99.90;;;;;;5035666;28;20181;-77
2022/04/05 10:06:46;;;;;;;8.77;7.87;;;6.50;99.90;;;;;;5035943;28;20226;-78
2022/04/05 10:09:17;;;;;;;7.83;7.03;;;6.50;99.90;;;;;;5019045;28;20281;-78
2022/04/05 10:11:43;;;;;;;7.43;6.73;;;6.50;99.90;;;;;;5035622;28;20160;-77
2022/04/05 10:14:12;;;;;;;7.83;6.67;;;6.50;99.90;;;;;;5018899;28;20197;-78
2022/04/05 10:16:39;;;;;;;7.70;6.90;;;6.50;99.90;;;;;;5053493;28;20199;-76
2022/04/05 10:19:07;;;;;;;8.87;7.63;;;6.60;99.90;;;;;;5035075;28;20216;-77
2022/04/05 10:21:35;;;;;;;8.70;7.80;;;6.60;99.90;;;;;;5019198;28;20182;-78
2022/04/05 10:24:03;;;;;;;7.50;6.70;;;6.60;99.90;;;;;;5018912;28;20183;-77
2022/04/05 10:26:34;;;;;;;8.00;7.20;;;6.60;99.90;;;;;;5018844;28;20543;-77
2022/04/05 10:29:03;;;;;;;6.67;5.83;;;6.60;99.90;;;;;;5019170;28;20198;-77
2022/04/05 10:31:39;;;;;;;7.33;5.90;;;6.80;99.90;;;;;;5035287;28;20184;-77
2022/04/05 10:34:20;;;;;;;6.70;6.00;;;6.90;99.90;;;;;;5035069;28;20178;-77
2022/04/05 10:37:05;;;;;;;6.70;6.00;;;7.00;99.90;;;;;;5035262;28;20615;-75
2022/04/05 10:39:30;;;;;;;6.30;5.63;;;7.50;99.90;;;;;;5034967;28;20705;-77
2022/04/05 10:42:08;;;;;;;5.40;4.90;;;7.60;99.90;;;;;;5034557;28;20295;-77
2022/04/05 10:44:38;;;;;;;5.97;5.33;;;7.40;99.90;;;;;;5034715;28;20172;-77
2022/04/05 10:47:09;;;;;;;5.30;4.80;;;7.10;99.90;;;;;;5018225;28;20169;-77
2022/04/05 10:49:44;;;;;;;5.93;5.33;;;7.00;99.90;;;;;;5018483;28;20181;-77
2022/04/05 10:52:23;;;;;;;5.80;5.20;;;6.90;99.90;;;;;;5018033;28;20287;-77
2022/04/05 10:55:02;;;;;;;5.90;5.33;;;6.90;99.90;;;;;;5052430;28;20196;-77
2022/04/05 10:57:43;;;;;;;5.87;5.27;;;6.80;99.90;;;;;;5034774;28;20218;-77
2022/04/05 11:00:22;;;;;;;5.93;5.00;;;6.80;99.90;;;;;;5018622;28;20222;-77
2022/04/05 11:03:00;;;;;;;5.57;4.77;;;6.80;99.90;;;;;;5017854;28;20701;-77
2022/04/05 11:05:35;;;;;;;5.87;5.00;;;6.80;99.90;;;;;;5034825;28;20182;-77
2022/04/05 11:08:02;;;;;;;6.40;5.47;;;6.80;99.90;;;;;;5019532;28;20199;-77
2022/04/05 11:10:39;;;;;;;6.40;5.80;;;6.80;99.90;;;;;;5018049;28;20222;-77
2022/04/05 11:13:19;;;;;;;6.27;5.63;;;6.80;99.90;;;;;;5019488;28;20226;-77
2022/04/05 11:15:53;;;;;;;6.50;5.80;;;6.90;99.90;;;;;;5018308;28;20163;-77
2022/04/05 11:18:33;;;;;;;6.77;5.60;;;6.90;99.90;;;;;;5018493;28;20184;-77
2022/04/05 11:20:59;;;;;;;7.20;6.00;;;6.90;99.90;;;;;;5018611;28;20166;-77
2022/04/05 11:24:01;;;;;;;6.73;6.03;;;6.90;99.90;;;;;;5017724;28;20203;-77
2022/04/05 11:26:35;;;;;;;6.47;5.87;;;6.90;99.90;;;;;;4939388;28;20244;-77
2022/04/05 11:29:03;;;;;;;6.23;5.53;;;6.90;99.90;;;;;;5007293;28;20235;-77
2022/04/05 11:31:40;;;;;;;6.03;5.43;;;6.90;99.90;;;;;;5002266;28;20277;-78
2022/04/05 11:34:37;;;;;;;5.33;4.83;;;6.90;99.90;;;;;;5034430;28;20181;-78
2022/04/05 11:37:05;;;;;;;5.33;4.63;;;6.90;99.90;;;;;;5034531;28;20175;-78
2022/04/05 11:39:35;;;;;;;5.20;4.50;;;6.90;99.90;;;;;;5018037;28;20176;-78
2022/04/05 11:42:02;;;;;;;4.87;4.47;;;7.00;99.90;;;;;;5017757;28;20202;-78
2022/04/05 11:44:27;;;;;;;4.70;4.30;;;6.90;99.90;;;;;;5018007;28;20242;-78
2022/04/05 11:46:59;;;;;;;5.60;4.30;;;6.90;99.90;;;;;;5018029;28;20191;-78
2022/04/05 11:49:24;;;;;;;4.53;4.13;;;6.90;99.90;;;;;;5002151;28;20231;-78
2022/04/05 11:51:51;;;;;;;4.53;4.13;;;6.90;99.90;;;;;;5001369;28;20638;-78
2022/04/05 11:54:24;;;;;;;4.70;4.23;;;6.90;99.90;;;;;;5018333;28;20176;-78
2022/04/05 11:56:51;;;;;;;4.80;4.37;;;7.00;99.90;;;;;;5018338;28;20188;-78
2022/04/05 11:59:24;;;;;;;4.63;4.13;;;7.00;99.90;;;;;;5001713;28;20318;-78
2022/04/05 12:01:51;;;;;;;5.37;4.63;;;7.00;99.90;;;;;;5037545;28;20171;-78
2022/04/05 12:04:22;;;;;;;5.43;4.73;;;7.10;99.90;;;;;;5022223;28;20260;-78
2022/04/05 12:06:52;;;;;;;5.27;4.77;;;7.10;99.90;;;;;;5022761;28;20169;-78
2022/04/05 12:09:18;;;;;;;5.10;4.60;;;7.10;99.90;;;;;;5022163;28;20205;-78
2022/04/05 12:11:47;;;;;;;5.27;4.77;;;7.10;99.90;;;;;;5055726;28;20176;-78
2022/04/05 12:14:18;;;;;;;5.70;5.20;;;7.10;99.90;;;;;;5021849;28;20181;-78
2022/04/05 12:16:58;;;;;;;5.73;4.93;;;7.10;99.90;;;;;;5055897;28;20209;-78
2022/04/05 12:19:29;;;;;;;5.83;5.23;;;7.10;99.90;;;;;;5022254;28;20179;-78
2022/04/05 12:22:05;;;;;;;5.00;4.60;;;7.10;99.90;;;;;;5020821;28;20329;-78
2022/04/05 12:24:32;;;;;;;6.83;5.40;;;7.10;99.90;;;;;;5006889;28;20195;-78
2022/04/05 12:26:59;;;;;;;5.77;5.23;;;7.10;99.90;;;;;;5021413;28;20642;-78
2022/04/05 12:29:27;;;;;;;6.50;5.90;;;7.10;99.90;;;;;;5038016;28;20212;-78
2022/04/05 12:31:53;;;;;;;6.40;5.80;;;7.10;99.90;;;;;;5020997;28;20220;-78
2022/04/05 12:34:20;;;;;;;6.73;6.00;;;7.10;99.90;;;;;;5055165;28;20159;-78
2022/04/05 12:36:56;;;;;;;6.13;5.27;;;7.10;99.90;;;;;;5020961;28;20180;-77
2022/04/05 12:39:25;;;;;;;6.80;6.10;;;7.20;99.90;;;;;;5037433;28;20240;-78
2022/04/05 12:41:53;;;;;;;6.40;5.80;;;7.20;99.90;;;;;;5021483;28;20188;-78
2022/04/05 12:44:21;;;;;;;7.40;5.90;;;7.20;99.90;;;;;;5020780;28;20184;-78
2022/04/05 12:46:52;;;;;;;6.60;5.77;;;7.30;99.90;;;;;;5006711;28;20207;-78
2022/04/05 12:49:31;;;;;;;5.87;5.20;;;7.20;99.90;;;;;;5021624;28;20208;-78
2022/04/05 12:52:18;;;;;;;7.37;6.10;;;7.20;99.90;;;;;;5022406;28;20208;-78
2022/04/05 12:54:51;;;;;;;6.30;5.70;;;7.20;99.90;;;;;;5037975;28;20187;-78
2022/04/05 12:57:22;;;;;;;7.97;5.87;;;7.30;99.90;;;;;;5023070;28;20172;-78
2022/04/05 12:59:50;;;;;;;6.60;6.00;;;7.30;99.90;;;;;;5038691;28;20749;-78
2022/04/05 13:02:16;;;;;;;6.80;6.20;;;7.40;99.90;;;;;;5022188;28;20713;-79